Monday, December 18, 2017, 5:57 AM EST
Back to Local

KDYL, Doylestown Airport

Location: Doylestown, PA, United States Lat: 40.333
Local Time: 5:57 AM EST (10:57 GMT) Lon: -75.117
Time Zone: US/Eastern Elev: 393 ft

Show me the last for .
Show Decoded

2017-12-18 04:54 METAR KDYL 180954Z AUTO 03003KT 10SM OVC007 01/M01 A3011 RMK AO2 SLP203
                 T00111011 =
2017-12-18 03:54 METAR KDYL 180854Z AUTO 03003KT 10SM OVC007 01/M01 A3012 RMK AO2 SLP206
                 T00111011 58007 =
2017-12-18 02:54 METAR KDYL 180754Z AUTO 04003KT 10SM OVC007 01/M01 A3013 RMK AO2 SLP208
                 T00111011 =
2017-12-18 01:54 METAR KDYL 180654Z AUTO 02004KT 10SM OVC008 01/M01 A3015 RMK AO2 SLP215
                 T00111011 =
2017-12-18 00:54 METAR KDYL 180554Z AUTO 04004KT 10SM BKN008 BKN065 OVC080 01/M02 A3014 RMK AO2
                 SLP213 T00111017 10017 20000 55012 =
2017-12-18 00:44 METAR KDYL 180544Z AUTO 03003KT 10SM SCT008 BKN070 OVC080 01/M02 A3014 RMK AO2
                 T00111017 =
2017-12-17 23:54 METAR KDYL 180454Z AUTO 00000KT 10SM OVC055 01/M02 A3015 RMK AO2 SLP218
                 T00111017 400391022 =
2017-12-17 22:54 METAR KDYL 180354Z AUTO 00000KT 10SM OVC100 01/M02 A3018 RMK AO2 SLP226
                 T00111022 =
2017-12-17 21:54 METAR KDYL 180254Z AUTO 00000KT 10SM OVC110 01/M03 A3020 RMK AO2 SLP232
                 T00111028 56012 =
2017-12-17 20:54 METAR KDYL 180154Z AUTO 02003KT 10SM OVC110 01/M03 A3021 RMK AO2 SLP237
                 T00061033 =
2017-12-17 19:54 METAR KDYL 180054Z AUTO 05003KT 10SM CLR 01/M03 A3021 RMK AO2 SLP239 T00111033 =
2017-12-17 18:54 METAR KDYL 172354Z AUTO 00000KT 10SM CLR 01/M03 A3023 RMK AO2 SLP245 T00111033
                 10039 20011 53011 =
2017-12-17 17:54 METAR KDYL 172254Z AUTO 00000KT 10SM CLR 02/M03 A3022 RMK AO2 SLP240 T00171033 =
2017-12-17 16:54 METAR KDYL 172154Z AUTO 00000KT 10SM CLR 02/M03 A3021 RMK AO2 SLP237 T00221033 =
2017-12-17 15:54 METAR KDYL 172054Z AUTO 00000KT 10SM CLR 03/M03 A3020 RMK AO2 SLP233 T00281033
                 56008 =
2017-12-17 14:54 METAR KDYL 171954Z AUTO 00000KT 10SM CLR 03/M04 A3020 RMK AO2 SLP233 T00281039 =
2017-12-17 13:54 METAR KDYL 171854Z AUTO 00000KT 10SM CLR 03/M04 A3020 RMK AO2 SLP233 T00331039 =
2017-12-17 12:54 METAR KDYL 171754Z AUTO 00000KT 10SM CLR 03/M04 A3022 RMK AO2 SLP241 T00331039
                 10033 21022 58015 =
2017-12-17 11:54 METAR KDYL 171654Z AUTO 00000KT 10SM CLR 03/M04 A3025 RMK AO2 SLP249 T00281039 =
2017-12-17 10:54 METAR KDYL 171554Z AUTO 00000KT 10SM CLR 02/M05 A3027 RMK AO2 SLP257 T00171050 =
2017-12-17 09:54 METAR KDYL 171454Z AUTO VRB03KT 10SM CLR 01/M05 A3027 RMK AO2 SLP257 T00061050
                 51007 =
2017-12-17 08:54 METAR KDYL 171354Z AUTO 01003KT 10SM CLR M01/M05 A3027 RMK AO2 SLP256 T10111050
                 =
2017-12-17 07:54 METAR KDYL 171254Z AUTO 00000KT 10SM CLR M02/M06 A3026 RMK AO2 SLP254 T10221056
                 =
2017-12-17 06:54 METAR KDYL 171154Z AUTO 00000KT 10SM CLR M02/M06 A3025 RMK AO2 SLP250 T10221056
                 10011 21022 53006 =

Support USWX by starting your Amazon purchase here.